sensor_id;sensor_type;location;lat;lon;timestamp;pressure;altitude;pressure_sealevel;temperature;humidity
34983;BME280;21187;50.976;13.720;2023-11-19T00:04:38;98236.88;;;6.93;54.84
34983;BME280;21187;50.976;13.720;2023-11-19T00:09:43;98214.84;;;6.91;55.03
34983;BME280;21187;50.976;13.720;2023-11-19T00:14:45;98192.25;;;6.83;54.97
34983;BME280;21187;50.976;13.720;2023-11-19T00:19:47;98176.75;;;6.80;55.25
34983;BME280;21187;50.976;13.720;2023-11-19T00:24:49;98171.88;;;6.73;55.25
34983;BME280;21187;50.976;13.720;2023-11-19T00:29:51;98157.50;;;6.69;55.55
34983;BME280;21187;50.976;13.720;2023-11-19T00:34:53;98152.09;;;6.69;55.75
34983;BME280;21187;50.976;13.720;2023-11-19T00:39:55;98154.81;;;6.69;55.29
34983;BME280;21187;50.976;13.720;2023-11-19T00:44:57;98135.56;;;6.79;54.97
34983;BME280;21187;50.976;13.720;2023-11-19T00:50:04;98137.88;;;6.90;54.89
34983;BME280;21187;50.976;13.720;2023-11-19T00:55:06;98109.00;;;6.99;54.91
34983;BME280;21187;50.976;13.720;2023-11-19T01:00:09;98115.59;;;7.10;54.49
34983;BME280;21187;50.976;13.720;2023-11-19T01:05:22;98119.47;;;7.22;54.49
34983;BME280;21187;50.976;13.720;2023-11-19T01:10:25;98101.66;;;7.29;54.31
34983;BME280;21187;50.976;13.720;2023-11-19T01:15:27;98075.78;;;7.37;54.23
34983;BME280;21187;50.976;13.720;2023-11-19T01:20:29;98056.03;;;7.45;54.57
34983;BME280;21187;50.976;13.720;2023-11-19T01:25:31;98050.00;;;7.48;54.31
34983;BME280;21187;50.976;13.720;2023-11-19T01:30:33;98043.91;;;7.39;54.78
34983;BME280;21187;50.976;13.720;2023-11-19T01:35:35;98026.59;;;7.40;54.92
34983;BME280;21187;50.976;13.720;2023-11-19T01:40:37;98014.91;;;7.36;55.02
34983;BME280;21187;50.976;13.720;2023-11-19T01:45:39;98023.59;;;7.42;54.60
34983;BME280;21187;50.976;13.720;2023-11-19T01:50:41;98019.34;;;7.53;54.79
34983;BME280;21187;50.976;13.720;2023-11-19T01:55:43;97995.00;;;7.62;54.64
34983;BME280;21187;50.976;13.720;2023-11-19T02:00:45;97990.41;;;7.62;55.14
34983;BME280;21187;50.976;13.720;2023-11-19T02:05:49;97962.00;;;7.65;55.38
34983;BME280;21187;50.976;13.720;2023-11-19T02:10:53;97926.53;;;7.63;55.17
34983;BME280;21187;50.976;13.720;2023-11-19T02:15:58;97945.16;;;7.68;55.01
34983;BME280;21187;50.976;13.720;2023-11-19T02:21:01;97941.31;;;7.69;55.25
34983;BME280;21187;50.976;13.720;2023-11-19T02:31:11;97895.50;;;7.69;55.70
34983;BME280;21187;50.976;13.720;2023-11-19T02:36:13;97871.03;;;7.62;55.35
34983;BME280;21187;50.976;13.720;2023-11-19T02:41:15;97862.38;;;7.69;55.90
34983;BME280;21187;50.976;13.720;2023-11-19T02:46:17;97855.75;;;7.78;55.19
34983;BME280;21187;50.976;13.720;2023-11-19T02:51:21;97840.72;;;7.77;55.57
34983;BME280;21187;50.976;13.720;2023-11-19T02:56:23;97848.53;;;7.82;55.11
34983;BME280;21187;50.976;13.720;2023-11-19T03:01:28;97824.75;;;7.85;55.15
34983;BME280;21187;50.976;13.720;2023-11-19T03:06:35;97795.63;;;7.90;55.35
34983;BME280;21187;50.976;13.720;2023-11-19T03:11:37;97793.50;;;7.96;55.16
34983;BME280;21187;50.976;13.720;2023-11-19T03:16:39;97783.47;;;7.96;54.77
34983;BME280;21187;50.976;13.720;2023-11-19T03:21:42;97775.94;;;8.02;55.11
34983;BME280;21187;50.976;13.720;2023-11-19T03:26:50;97770.19;;;8.04;54.61
34983;BME280;21187;50.976;13.720;2023-11-19T03:31:52;97772.13;;;8.03;55.31
34983;BME280;21187;50.976;13.720;2023-11-19T03:36:54;97773.00;;;8.07;55.37
34983;BME280;21187;50.976;13.720;2023-11-19T03:41:55;97748.47;;;8.12;55.11
34983;BME280;21187;50.976;13.720;2023-11-19T03:46:57;97731.59;;;8.15;55.20
34983;BME280;21187;50.976;13.720;2023-11-19T03:51:59;97724.84;;;8.22;55.07
34983;BME280;21187;50.976;13.720;2023-11-19T03:57:01;97726.59;;;8.30;55.21
34983;BME280;21187;50.976;13.720;2023-11-19T04:02:05;97688.81;;;8.30;54.97
34983;BME280;21187;50.976;13.720;2023-11-19T04:07:08;97689.72;;;8.34;54.99
34983;BME280;21187;50.976;13.720;2023-11-19T04:12:10;97691.97;;;8.32;54.50
34983;BME280;21187;50.976;13.720;2023-11-19T04:17:12;97681.19;;;8.32;55.09
34983;BME280;21187;50.976;13.720;2023-11-19T04:22:14;97665.09;;;8.36;54.80
34983;BME280;21187;50.976;13.720;2023-11-19T04:27:16;97663.25;;;8.40;54.79
34983;BME280;21187;50.976;13.720;2023-11-19T04:32:18;97691.00;;;8.40;54.54
34983;BME280;21187;50.976;13.720;2023-11-19T04:37:20;97676.38;;;8.25;55.66
34983;BME280;21187;50.976;13.720;2023-11-19T04:42:22;97662.16;;;8.12;56.04
34983;BME280;21187;50.976;13.720;2023-11-19T04:47:24;97659.63;;;8.04;56.06
34983;BME280;21187;50.976;13.720;2023-11-19T04:52:26;97648.41;;;8.02;56.42
34983;BME280;21187;50.976;13.720;2023-11-19T04:57:28;97640.47;;;7.93;56.55
34983;BME280;21187;50.976;13.720;2023-11-19T05:02:30;97631.97;;;7.91;56.66
34983;BME280;21187;50.976;13.720;2023-11-19T05:07:32;97630.72;;;7.88;57.42
34983;BME280;21187;50.976;13.720;2023-11-19T05:12:34;97626.75;;;7.98;56.93
34983;BME280;21187;50.976;13.720;2023-11-19T05:17:36;97617.78;;;7.94;57.32
34983;BME280;21187;50.976;13.720;2023-11-19T05:22:40;97607.50;;;7.83;57.78
34983;BME280;21187;50.976;13.720;2023-11-19T05:27:42;97593.59;;;7.81;57.88
34983;BME280;21187;50.976;13.720;2023-11-19T05:32:44;97583.69;;;7.86;58.27
34983;BME280;21187;50.976;13.720;2023-11-19T05:37:46;97573.06;;;7.93;58.31
34983;BME280;21187;50.976;13.720;2023-11-19T05:42:48;97575.50;;;7.98;58.50
34983;BME280;21187;50.976;13.720;2023-11-19T05:47:50;97577.25;;;8.06;57.96
34983;BME280;21187;50.976;13.720;2023-11-19T05:52:53;97565.53;;;8.14;57.93
34983;BME280;21187;50.976;13.720;2023-11-19T05:57:55;97556.91;;;8.25;58.14
34983;BME280;21187;50.976;13.720;2023-11-19T06:02:57;97561.75;;;8.35;59.57
34983;BME280;21187;50.976;13.720;2023-11-19T06:07:59;97551.41;;;8.53;59.05
34983;BME280;21187;50.976;13.720;2023-11-19T06:13:01;97529.00;;;8.69;59.55
34983;BME280;21187;50.976;13.720;2023-11-19T06:18:06;97533.22;;;8.86;60.42
34983;BME280;21187;50.976;13.720;2023-11-19T06:23:08;97506.38;;;9.12;60.87
34983;BME280;21187;50.976;13.720;2023-11-19T06:28:10;97500.78;;;9.44;60.95
34983;BME280;21187;50.976;13.720;2023-11-19T06:33:13;97474.84;;;9.63;61.61
34983;BME280;21187;50.976;13.720;2023-11-19T06:38:15;97472.81;;;9.79;61.94
34983;BME280;21187;50.976;13.720;2023-11-19T06:43:16;97495.38;;;9.91;61.48
34983;BME280;21187;50.976;13.720;2023-11-19T06:48:19;97488.66;;;10.04;61.70
34983;BME280;21187;50.976;13.720;2023-11-19T06:53:21;97495.31;;;10.10;61.21
34983;BME280;21187;50.976;13.720;2023-11-19T06:58:23;97486.91;;;10.15;61.69
34983;BME280;21187;50.976;13.720;2023-11-19T07:03:25;97475.03;;;10.24;61.87
34983;BME280;21187;50.976;13.720;2023-11-19T07:08:27;97489.06;;;10.33;61.82
34983;BME280;21187;50.976;13.720;2023-11-19T07:13:29;97482.91;;;10.32;62.19
34983;BME280;21187;50.976;13.720;2023-11-19T07:18:31;97504.63;;;10.36;61.94
34983;BME280;21187;50.976;13.720;2023-11-19T07:23:33;97511.72;;;10.44;62.58
34983;BME280;21187;50.976;13.720;2023-11-19T07:28:36;97511.13;;;10.58;62.43
34983;BME280;21187;50.976;13.720;2023-11-19T07:33:39;97510.84;;;10.67;62.12
34983;BME280;21187;50.976;13.720;2023-11-19T07:38:41;97519.81;;;10.71;62.48
34983;BME280;21187;50.976;13.720;2023-11-19T07:43:43;97517.94;;;10.75;62.77
34983;BME280;21187;50.976;13.720;2023-11-19T07:48:46;97510.63;;;10.79;62.56
34983;BME280;21187;50.976;13.720;2023-11-19T07:53:50;97528.91;;;10.86;62.75
34983;BME280;21187;50.976;13.720;2023-11-19T07:58:52;97522.88;;;11.00;62.77
34983;BME280;21187;50.976;13.720;2023-11-19T08:03:54;97527.28;;;11.12;62.67
34983;BME280;21187;50.976;13.720;2023-11-19T08:08:59;97530.44;;;11.18;62.50
34983;BME280;21187;50.976;13.720;2023-11-19T08:14:01;97544.84;;;11.22;62.57
34983;BME280;21187;50.976;13.720;2023-11-19T08:19:03;97540.63;;;11.28;62.83
34983;BME280;21187;50.976;13.720;2023-11-19T08:24:05;97533.00;;;11.37;63.29
34983;BME280;21187;50.976;13.720;2023-11-19T08:29:07;97519.91;;;11.43;62.93
34983;BME280;21187;50.976;13.720;2023-11-19T08:34:09;97506.78;;;11.48;62.94
34983;BME280;21187;50.976;13.720;2023-11-19T08:39:11;97503.81;;;11.61;63.10
34983;BME280;21187;50.976;13.720;2023-11-19T08:44:13;97508.69;;;11.86;62.77
34983;BME280;21187;50.976;13.720;2023-11-19T08:49:15;97513.63;;;12.18;62.59
34983;BME280;21187;50.976;13.720;2023-11-19T08:54:17;97528.53;;;12.38;62.15
34983;BME280;21187;50.976;13.720;2023-11-19T08:59:19;97529.34;;;12.46;62.04
34983;BME280;21187;50.976;13.720;2023-11-19T09:04:21;97537.81;;;12.37;62.32
34983;BME280;21187;50.976;13.720;2023-11-19T09:09:24;97541.69;;;12.36;62.44
34983;BME280;21187;50.976;13.720;2023-11-19T09:14:26;97544.03;;;12.38;62.55
34983;BME280;21187;50.976;13.720;2023-11-19T09:19:28;97541.75;;;12.43;62.38
34983;BME280;21187;50.976;13.720;2023-11-19T09:24:33;97544.13;;;12.48;62.38
34983;BME280;21187;50.976;13.720;2023-11-19T09:29:35;97536.38;;;12.54;62.29
34983;BME280;21187;50.976;13.720;2023-11-19T09:34:38;97542.63;;;12.58;62.37
34983;BME280;21187;50.976;13.720;2023-11-19T09:39:39;97544.22;;;12.63;62.52
34983;BME280;21187;50.976;13.720;2023-11-19T09:44:45;97534.16;;;12.67;62.41
34983;BME280;21187;50.976;13.720;2023-11-19T09:49:49;97561.00;;;12.79;61.97
34983;BME280;21187;50.976;13.720;2023-11-19T09:54:51;97559.88;;;12.88;62.08
34983;BME280;21187;50.976;13.720;2023-11-19T09:59:54;97540.09;;;12.94;61.79
34983;BME280;21187;50.976;13.720;2023-11-19T10:04:56;97550.22;;;12.97;61.32
34983;BME280;21187;50.976;13.720;2023-11-19T10:10:00;97564.63;;;13.05;61.01
34983;BME280;21187;50.976;13.720;2023-11-19T10:15:04;97556.88;;;13.11;60.97
34983;BME280;21187;50.976;13.720;2023-11-19T10:20:08;97564.66;;;13.12;61.02
34983;BME280;21187;50.976;13.720;2023-11-19T10:25:25;97558.44;;;13.15;60.67
34983;BME280;21187;50.976;13.720;2023-11-19T10:30:28;97556.91;;;13.18;60.34
34983;BME280;21187;50.976;13.720;2023-11-19T10:35:32;97542.19;;;13.23;60.23
34983;BME280;21187;50.976;13.720;2023-11-19T10:40:40;97549.97;;;13.28;60.22
34983;BME280;21187;50.976;13.720;2023-11-19T10:45:42;97534.47;;;13.39;59.92
34983;BME280;21187;50.976;13.720;2023-11-19T10:50:45;97531.44;;;13.52;59.83
34983;BME280;21187;50.976;13.720;2023-11-19T10:55:47;97528.34;;;13.64;59.68
34983;BME280;21187;50.976;13.720;2023-11-19T11:00:55;97535.34;;;13.72;59.61
34983;BME280;21187;50.976;13.720;2023-11-19T11:06:03;97536.13;;;13.76;58.99
34983;BME280;21187;50.976;13.720;2023-11-19T11:11:07;97537.69;;;13.77;59.12
34983;BME280;21187;50.976;13.720;2023-11-19T11:16:09;97524.84;;;13.81;59.00
34983;BME280;21187;50.976;13.720;2023-11-19T11:21:15;97522.16;;;13.78;58.40
34983;BME280;21187;50.976;13.720;2023-11-19T11:32:04;97527.59;;;13.74;58.33
34983;BME280;21187;50.976;13.720;2023-11-19T11:37:18;97539.66;;;13.80;58.06
34983;BME280;21187;50.976;13.720;2023-11-19T11:47:23;97529.91;;;13.87;57.79
34983;BME280;21187;50.976;13.720;2023-11-19T11:52:25;97526.81;;;13.85;57.19
34983;BME280;21187;50.976;13.720;2023-11-19T11:57:36;97515.94;;;13.92;56.71
34983;BME280;21187;50.976;13.720;2023-11-19T12:02:38;97520.22;;;13.96;56.77
34983;BME280;21187;50.976;13.720;2023-11-19T12:07:40;97511.66;;;14.05;56.39
34983;BME280;21187;50.976;13.720;2023-11-19T12:12:42;97508.94;;;14.20;55.90
34983;BME280;21187;50.976;13.720;2023-11-19T12:17:47;97498.00;;;14.48;55.00
34983;BME280;21187;50.976;13.720;2023-11-19T12:22:53;97487.06;;;14.85;54.44
34983;BME280;21187;50.976;13.720;2023-11-19T12:27:56;97479.75;;;15.41;53.46
34983;BME280;21187;50.976;13.720;2023-11-19T12:32:58;97470.34;;;16.51;51.54
34983;BME280;21187;50.976;13.720;2023-11-19T12:38:00;97455.91;;;18.22;47.39
34983;BME280;21187;50.976;13.720;2023-11-19T12:43:02;97456.66;;;19.96;44.46
34983;BME280;21187;50.976;13.720;2023-11-19T12:48:06;97447.03;;;21.35;41.89
34983;BME280;21187;50.976;13.720;2023-11-19T12:53:08;97438.91;;;22.75;40.41
34983;BME280;21187;50.976;13.720;2023-11-19T13:03:36;97441.94;;;22.10;37.25
34983;BME280;21187;50.976;13.720;2023-11-19T13:08:46;97447.44;;;22.10;36.97
34983;BME280;21187;50.976;13.720;2023-11-19T13:13:55;97452.00;;;21.78;37.01
34983;BME280;21187;50.976;13.720;2023-11-19T13:18:58;97443.50;;;21.34;36.37
34983;BME280;21187;50.976;13.720;2023-11-19T13:24:02;97443.53;;;19.87;38.06
34983;BME280;21187;50.976;13.720;2023-11-19T13:29:04;97453.06;;;18.93;40.46
34983;BME280;21187;50.976;13.720;2023-11-19T13:34:06;97447.69;;;20.25;40.34
34983;BME280;21187;50.976;13.720;2023-11-19T13:39:10;97449.72;;;20.37;39.39
34983;BME280;21187;50.976;13.720;2023-11-19T13:44:14;97449.81;;;19.88;39.39
34983;BME280;21187;50.976;13.720;2023-11-19T13:49:16;97446.66;;;20.35;37.98
34983;BME280;21187;50.976;13.720;2023-11-19T13:54:18;97450.00;;;20.26;37.48
34983;BME280;21187;50.976;13.720;2023-11-19T13:59:22;97456.56;;;19.14;38.56
34983;BME280;21187;50.976;13.720;2023-11-19T14:04:25;97465.47;;;17.86;40.27
34983;BME280;21187;50.976;13.720;2023-11-19T14:09:27;97470.97;;;16.66;41.82
34983;BME280;21187;50.976;13.720;2023-11-19T14:14:31;97490.38;;;15.92;42.99
34983;BME280;21187;50.976;13.720;2023-11-19T14:19:33;97484.38;;;15.52;43.77
34983;BME280;21187;50.976;13.720;2023-11-19T14:24:36;97476.75;;;15.21;44.61
34983;BME280;21187;50.976;13.720;2023-11-19T14:29:38;97484.66;;;15.01;45.50
34983;BME280;21187;50.976;13.720;2023-11-19T14:34:42;97489.34;;;14.90;46.03
34983;BME280;21187;50.976;13.720;2023-11-19T14:39:45;97490.94;;;14.80;46.31
34983;BME280;21187;50.976;13.720;2023-11-19T14:44:53;97491.75;;;14.73;46.53
34983;BME280;21187;50.976;13.720;2023-11-19T14:49:55;97494.13;;;14.68;47.22
34983;BME280;21187;50.976;13.720;2023-11-19T14:54:57;97488.25;;;14.62;47.18
34983;BME280;21187;50.976;13.720;2023-11-19T14:59:59;97487.91;;;14.49;47.52
34983;BME280;21187;50.976;13.720;2023-11-19T15:05:01;97476.25;;;14.41;47.51
34983;BME280;21187;50.976;13.720;2023-11-19T15:10:03;97472.75;;;14.26;47.85
34983;BME280;21187;50.976;13.720;2023-11-19T15:15:08;97463.03;;;14.14;48.09
34983;BME280;21187;50.976;13.720;2023-11-19T15:20:35;97473.16;;;14.03;48.31
34983;BME280;21187;50.976;13.720;2023-11-19T15:25:37;97473.16;;;13.89;48.75
34983;BME280;21187;50.976;13.720;2023-11-19T15:30:39;97473.94;;;13.78;48.78
34983;BME280;21187;50.976;13.720;2023-11-19T15:35:41;97470.81;;;13.69;48.96
34983;BME280;21187;50.976;13.720;2023-11-19T15:40:43;97491.41;;;13.63;49.22
34983;BME280;21187;50.976;13.720;2023-11-19T15:45:45;97486.34;;;13.58;49.02
34983;BME280;21187;50.976;13.720;2023-11-19T15:50:48;97485.97;;;13.56;49.29
34983;BME280;21187;50.976;13.720;2023-11-19T15:55:50;97478.19;;;13.54;49.22
34983;BME280;21187;50.976;13.720;2023-11-19T16:00:54;97489.47;;;13.53;49.52
34983;BME280;21187;50.976;13.720;2023-11-19T16:05:57;97489.81;;;13.51;49.38
34983;BME280;21187;50.976;13.720;2023-11-19T16:11:10;97496.44;;;13.46;49.67
34983;BME280;21187;50.976;13.720;2023-11-19T16:16:15;97493.69;;;13.39;49.65
34983;BME280;21187;50.976;13.720;2023-11-19T16:21:17;97489.03;;;13.36;49.86
34983;BME280;21187;50.976;13.720;2023-11-19T16:26:19;97470.75;;;13.33;50.09
34983;BME280;21187;50.976;13.720;2023-11-19T16:31:22;97487.03;;;13.29;49.85
34983;BME280;21187;50.976;13.720;2023-11-19T16:36:24;97490.13;;;13.24;50.28
34983;BME280;21187;50.976;13.720;2023-11-19T16:41:27;97489.34;;;13.24;50.06
34983;BME280;21187;50.976;13.720;2023-11-19T16:46:42;97482.38;;;13.23;50.00
34983;BME280;21187;50.976;13.720;2023-11-19T16:51:45;97484.66;;;13.21;49.98
34983;BME280;21187;50.976;13.720;2023-11-19T16:56:48;97498.25;;;13.21;49.92
34983;BME280;21187;50.976;13.720;2023-11-19T17:01:50;97504.50;;;13.21;49.70
34983;BME280;21187;50.976;13.720;2023-11-19T17:06:52;97492.81;;;13.21;49.51
34983;BME280;21187;50.976;13.720;2023-11-19T17:11:54;97496.34;;;13.25;49.30
34983;BME280;21187;50.976;13.720;2023-11-19T17:16:57;97494.03;;;13.27;48.78
34983;BME280;21187;50.976;13.720;2023-11-19T17:21:59;97497.53;;;13.31;48.83
34983;BME280;21187;50.976;13.720;2023-11-19T17:27:01;97504.13;;;13.34;48.44
34983;BME280;21187;50.976;13.720;2023-11-19T17:32:04;97507.25;;;13.36;48.28
34983;BME280;21187;50.976;13.720;2023-11-19T17:37:06;97497.53;;;13.31;48.43
34983;BME280;21187;50.976;13.720;2023-11-19T17:42:08;97513.81;;;13.27;48.26
34983;BME280;21187;50.976;13.720;2023-11-19T17:47:11;97496.34;;;13.25;48.34
34983;BME280;21187;50.976;13.720;2023-11-19T17:52:14;97514.22;;;13.26;48.37
34983;BME280;21187;50.976;13.720;2023-11-19T17:57:17;97515.38;;;13.25;48.44
34983;BME280;21187;50.976;13.720;2023-11-19T18:02:18;97519.28;;;13.24;48.43
34983;BME280;21187;50.976;13.720;2023-11-19T18:07:20;97521.19;;;13.20;48.10
34983;BME280;21187;50.976;13.720;2023-11-19T18:12:23;97516.50;;;13.17;48.13
34983;BME280;21187;50.976;13.720;2023-11-19T18:17:25;97505.63;;;13.13;48.36
34983;BME280;21187;50.976;13.720;2023-11-19T18:22:27;97513.38;;;13.07;48.37
34983;BME280;21187;50.976;13.720;2023-11-19T18:27:29;97517.25;;;13.06;48.62
34983;BME280;21187;50.976;13.720;2023-11-19T18:32:31;97519.97;;;13.06;48.62
34983;BME280;21187;50.976;13.720;2023-11-19T18:37:33;97526.16;;;13.03;48.80
34983;BME280;21187;50.976;13.720;2023-11-19T18:42:38;97526.53;;;12.98;48.79
34983;BME280;21187;50.976;13.720;2023-11-19T18:47:40;97520.31;;;12.94;48.76
34983;BME280;21187;50.976;13.720;2023-11-19T18:52:42;97530.75;;;12.85;49.04
34983;BME280;21187;50.976;13.720;2023-11-19T18:57:46;97533.38;;;12.70;49.14
34983;BME280;21187;50.976;13.720;2023-11-19T19:02:48;97544.22;;;12.63;49.35
34983;BME280;21187;50.976;13.720;2023-11-19T19:07:55;97531.72;;;12.55;49.42
34983;BME280;21187;50.976;13.720;2023-11-19T19:12:58;97531.69;;;12.47;49.68
34983;BME280;21187;50.976;13.720;2023-11-19T19:18:00;97517.69;;;12.45;49.75
34983;BME280;21187;50.976;13.720;2023-11-19T19:23:03;97527.06;;;12.52;49.74
34983;BME280;21187;50.976;13.720;2023-11-19T19:28:05;97524.00;;;12.57;49.63
34983;BME280;21187;50.976;13.720;2023-11-19T19:33:14;97522.47;;;12.63;49.74
34983;BME280;21187;50.976;13.720;2023-11-19T19:38:16;97524.81;;;12.68;49.78
34983;BME280;21187;50.976;13.720;2023-11-19T19:43:18;97533.06;;;12.79;49.72
34983;BME280;21187;50.976;13.720;2023-11-19T19:48:21;97545.91;;;12.86;49.41
34983;BME280;21187;50.976;13.720;2023-11-19T19:53:23;97541.28;;;12.93;49.62
34983;BME280;21187;50.976;13.720;2023-11-19T19:58:25;97545.09;;;12.81;50.05
34983;BME280;21187;50.976;13.720;2023-11-19T20:03:27;97548.19;;;12.84;50.30
34983;BME280;21187;50.976;13.720;2023-11-19T20:08:29;97549.00;;;12.88;50.10
34983;BME280;21187;50.976;13.720;2023-11-19T20:13:31;97545.13;;;12.89;50.44
34983;BME280;21187;50.976;13.720;2023-11-19T20:18:33;97548.25;;;12.91;50.50
34983;BME280;21187;50.976;13.720;2023-11-19T20:23:35;97556.78;;;12.93;50.54
34983;BME280;21187;50.976;13.720;2023-11-19T20:28:37;97557.16;;;12.88;50.54
34983;BME280;21187;50.976;13.720;2023-11-19T20:33:39;97558.34;;;12.87;50.70
34983;BME280;21187;50.976;13.720;2023-11-19T20:38:41;97557.16;;;12.88;51.06
34983;BME280;21187;50.976;13.720;2023-11-19T20:43:44;97562.19;;;12.89;50.92
34983;BME280;21187;50.976;13.720;2023-11-19T20:48:46;97560.66;;;12.92;51.05
34983;BME280;21187;50.976;13.720;2023-11-19T20:53:49;97552.91;;;12.94;51.13
34983;BME280;21187;50.976;13.720;2023-11-19T20:58:52;97565.34;;;12.95;51.77
34983;BME280;21187;50.976;13.720;2023-11-19T21:03:55;97563.75;;;12.87;52.39
34983;BME280;21187;50.976;13.720;2023-11-19T21:08:58;97550.50;;;12.78;53.17
34983;BME280;21187;50.976;13.720;2023-11-19T21:13:59;97544.25;;;12.70;53.65
34983;BME280;21187;50.976;13.720;2023-11-19T21:19:01;97545.38;;;12.65;54.04
34983;BME280;21187;50.976;13.720;2023-11-19T21:24:04;97546.53;;;12.61;54.11
34983;BME280;21187;50.976;13.720;2023-11-19T21:29:06;97543.34;;;12.52;54.68
34983;BME280;21187;50.976;13.720;2023-11-19T21:34:07;97541.78;;;12.51;54.77
34983;BME280;21187;50.976;13.720;2023-11-19T21:39:09;97539.84;;;12.47;55.02
34983;BME280;21187;50.976;13.720;2023-11-19T21:44:14;97530.13;;;12.46;54.70
34983;BME280;21187;50.976;13.720;2023-11-19T21:49:15;97538.66;;;12.45;54.75
34983;BME280;21187;50.976;13.720;2023-11-19T21:54:17;97535.53;;;12.43;54.90
34983;BME280;21187;50.976;13.720;2023-11-19T21:59:20;97539.03;;;12.43;55.12
34983;BME280;21187;50.976;13.720;2023-11-19T22:04:22;97531.66;;;12.44;55.34
34983;BME280;21187;50.976;13.720;2023-11-19T22:09:24;97526.97;;;12.37;55.94
34983;BME280;21187;50.976;13.720;2023-11-19T22:14:26;97523.06;;;12.35;56.14
34983;BME280;21187;50.976;13.720;2023-11-19T22:19:28;97521.56;;;12.41;56.35
34983;BME280;21187;50.976;13.720;2023-11-19T22:24:30;97516.84;;;12.34;56.74
34983;BME280;21187;50.976;13.720;2023-11-19T22:29:32;97509.06;;;12.32;56.67
34983;BME280;21187;50.976;13.720;2023-11-19T22:34:35;97512.97;;;12.35;56.92
34983;BME280;21187;50.976;13.720;2023-11-19T22:39:36;97500.56;;;12.34;56.92
34983;BME280;21187;50.976;13.720;2023-11-19T22:44:38;97495.91;;;12.35;56.86
34983;BME280;21187;50.976;13.720;2023-11-19T22:49:41;97495.53;;;12.36;56.86
34983;BME280;21187;50.976;13.720;2023-11-19T22:54:43;97504.13;;;12.42;56.52
34983;BME280;21187;50.976;13.720;2023-11-19T22:59:44;97502.94;;;12.43;56.46
34983;BME280;21187;50.976;13.720;2023-11-19T23:04:46;97494.78;;;12.43;56.36
34983;BME280;21187;50.976;13.720;2023-11-19T23:09:48;97502.56;;;12.44;56.13
34983;BME280;21187;50.976;13.720;2023-11-19T23:14:50;97499.47;;;12.46;55.94
34983;BME280;21187;50.976;13.720;2023-11-19T23:19:52;97495.59;;;12.47;56.12
34983;BME280;21187;50.976;13.720;2023-11-19T23:25:00;97505.69;;;12.46;56.11
34983;BME280;21187;50.976;13.720;2023-11-19T23:30:02;97502.19;;;12.49;55.77
34983;BME280;21187;50.976;13.720;2023-11-19T23:35:05;97493.69;;;12.51;55.84
34983;BME280;21187;50.976;13.720;2023-11-19T23:40:11;97501.47;;;12.56;55.57
34983;BME280;21187;50.976;13.720;2023-11-19T23:45:14;97485.97;;;12.57;55.16
34983;BME280;21187;50.976;13.720;2023-11-19T23:50:17;97499.94;;;12.59;54.83
34983;BME280;21187;50.976;13.720;2023-11-19T23:55:19;97494.88;;;12.57;54.33
